Webcam Richtung Westen

Webcam27

Webcam Richtung Norden

Webcam36

Webcam Richtung Osten

Webcam09

Wetter(Würzburg):
230300Z AUTO 17003G03KT 7000 BR ////// 01/01 Q1009
		
Thu 23.11.2017, 03:00 UTC

Sichtweite bis zu 7000 m
feuchter Dunst
Wind aus 170° mit 03kt, in Böen bis zu 03kt

Temperatur: 1 °C
Taupunkt: 1 °C
QNH: 1009 hPa
                         Heute        Morgen
                         23.11        24.11
--------------------------------------------
Beginn der Dämmerung     06:08        06:09
Sonnenaufgang            06:44        06:46
Sonnenuntergang          15:29        15:28
Ende der Dämmerung       16:05        16:04

Alle Zeiten in UTC